Time;durP1;ratioP1;P1;durP2;ratioP2;P2;SDS_P1;SDS_P2;PMS_P1;PMS_P2;Temp;Humidity;BMP_temperature;BMP_pressure;BME280_temperature;BME280_humidity;BME280_pressure;Samples;Min_cycle;Max_cycle;Signal;HPM_P1;HPM_P2
2022/11/25 00:01:18;;;;;;;11.27;3.20;;;9.00;99.90;;;;;;5034377;28;20017;-75
2022/11/25 00:03:45;;;;;;;18.83;3.53;;;8.90;99.90;;;;;;5034188;28;20029;-75
2022/11/25 00:06:25;;;;;;;19.10;3.60;;;8.90;99.90;;;;;;5032370;28;20041;-74
2022/11/25 00:08:55;;;;;;;16.10;4.28;;;8.90;99.90;;;;;;5020407;28;20470;-74
2022/11/25 00:11:21;;;;;;;13.63;3.05;;;8.80;99.90;;;;;;5033720;28;20378;-74
2022/11/25 00:13:50;;;;;;;14.77;3.42;;;8.80;99.90;;;;;;5034004;28;20029;-74
2022/11/25 00:16:18;;;;;;;19.50;3.90;;;8.90;99.90;;;;;;5034338;28;20029;-74
2022/11/25 00:18:52;;;;;;;16.00;3.47;;;8.80;99.90;;;;;;5033301;28;20036;-74
2022/11/25 00:21:30;;;;;;;23.48;4.05;;;8.80;99.90;;;;;;5034297;28;20030;-75
2022/11/25 00:23:59;;;;;;;17.58;3.30;;;8.80;99.90;;;;;;5033883;28;20104;-74
2022/11/25 00:26:26;;;;;;;16.25;3.97;;;9.50;99.90;;;;;;5033931;28;20095;-75
2022/11/25 00:28:53;;;;;;;15.45;3.42;;;8.90;99.90;;;;;;5034014;28;20026;-74
2022/11/25 00:31:20;;;;;;;16.40;4.13;;;8.80;99.90;;;;;;5034860;28;20087;-75
2022/11/25 00:33:45;;;;;;;13.70;3.47;;;8.80;99.90;;;;;;5034664;28;20033;-75
2022/11/25 00:36:18;;;;;;;19.85;3.55;;;8.80;99.90;;;;;;5020500;28;20029;-74
2022/11/25 00:38:44;;;;;;;16.27;3.80;;;8.80;99.90;;;;;;5034957;28;20025;-75
2022/11/25 00:46:39;;;;;;;22.40;3.55;;;8.90;99.90;;;;;;5033142;28;20609;-75
2022/11/25 00:49:04;;;;;;;14.45;3.63;;;8.90;99.90;;;;;;5033873;28;20116;-77
2022/11/25 00:51:30;;;;;;;15.25;3.42;;;8.90;99.90;;;;;;5033937;28;20027;-75
2022/11/25 00:53:55;;;;;;;11.88;3.70;;;8.90;99.90;;;;;;5033228;28;20026;-75
2022/11/25 00:56:22;;;;;;;15.63;3.33;;;8.90;99.90;;;;;;5033916;28;20033;-74
2022/11/25 00:58:48;;;;;;;19.65;3.88;;;8.90;99.90;;;;;;5034036;28;20033;-75
2022/11/25 01:01:14;;;;;;;9.18;3.20;;;8.90;99.90;;;;;;5033578;28;20029;-75
2022/11/25 01:03:40;;;;;;;25.40;4.95;;;9.00;99.90;;;;;;5033285;28;20024;-74
2022/11/25 01:06:10;;;;;;;18.05;3.75;;;9.00;99.90;;;;;;5032977;28;20469;-75
2022/11/25 01:08:37;;;;;;;20.42;3.95;;;9.00;99.90;;;;;;5032697;28;20032;-74
2022/11/25 01:11:06;;;;;;;23.48;3.88;;;9.10;99.90;;;;;;5033416;28;20049;-74
2022/11/25 01:13:32;;;;;;;17.00;3.33;;;9.00;99.90;;;;;;5032882;28;20116;-74
2022/11/25 01:16:04;;;;;;;22.33;5.55;;;9.10;99.90;;;;;;5032056;28;20118;-74
2022/11/25 01:18:30;;;;;;;19.13;3.60;;;9.00;99.90;;;;;;5032664;28;20493;-75
2022/11/25 01:21:06;;;;;;;23.73;3.58;;;9.10;99.90;;;;;;5032891;28;20101;-74
2022/11/25 01:23:31;;;;;;;18.33;3.22;;;9.10;99.90;;;;;;5032352;28;20104;-75
2022/11/25 01:26:01;;;;;;;16.23;3.55;;;9.10;99.90;;;;;;5032983;28;20128;-75
2022/11/25 01:28:26;;;;;;;20.55;4.47;;;9.10;99.90;;;;;;5033008;28;20025;-75
2022/11/25 01:31:03;;;;;;;19.95;4.05;;;9.10;99.90;;;;;;5031979;28;20359;-74
2022/11/25 01:33:33;;;;;;;24.63;4.47;;;9.10;99.90;;;;;;5032797;28;20377;-75
2022/11/25 01:36:11;;;;;;;32.63;4.63;;;9.20;99.90;;;;;;5032434;28;20120;-75
2022/11/25 01:38:36;;;;;;;22.80;4.18;;;9.20;99.90;;;;;;5033653;28;20091;-74
2022/11/25 01:41:03;;;;;;;13.65;3.65;;;9.20;99.90;;;;;;5032702;28;20409;-74
2022/11/25 01:43:29;;;;;;;27.95;5.03;;;9.20;99.90;;;;;;5031986;28;20025;-74
2022/11/25 01:46:01;;;;;;;22.10;4.40;;;9.10;99.90;;;;;;5033519;28;20155;-75
2022/11/25 01:48:36;;;;;;;21.95;5.13;;;9.10;99.90;;;;;;5020112;28;20033;-75
2022/11/25 01:51:02;;;;;;;22.33;3.83;;;9.10;99.90;;;;;;5032945;28;20057;-74
2022/11/25 01:53:28;;;;;;;22.17;3.70;;;9.10;99.90;;;;;;5033282;28;20072;-75
2022/11/25 01:55:59;;;;;;;21.95;4.35;;;9.00;99.90;;;;;;5032462;28;20028;-74
2022/11/25 01:58:29;;;;;;;19.15;4.18;;;9.10;99.90;;;;;;5032155;28;20033;-75
2022/11/25 02:00:55;;;;;;;17.08;3.85;;;9.10;99.90;;;;;;5032340;28;20025;-75
2022/11/25 02:03:28;;;;;;;26.45;4.50;;;9.10;99.90;;;;;;5032420;28;20033;-75
2022/11/25 02:06:02;;;;;;;19.17;3.67;;;9.10;99.90;;;;;;5032425;28;20033;-74
2022/11/25 02:08:29;;;;;;;14.80;3.75;;;9.10;99.90;;;;;;5032671;28;20028;-75
2022/11/25 02:10:56;;;;;;;18.95;4.28;;;9.10;99.90;;;;;;5031576;28;20041;-74
2022/11/25 02:13:23;;;;;;;22.27;4.43;;;9.10;99.90;;;;;;5032311;28;20037;-74
2022/11/25 02:15:49;;;;;;;18.58;4.10;;;9.10;99.90;;;;;;5032824;28;20424;-75
2022/11/25 02:18:15;;;;;;;28.55;4.68;;;9.10;99.90;;;;;;5032265;28;20029;-74
2022/11/25 02:20:41;;;;;;;24.02;5.63;;;9.10;99.90;;;;;;5026789;28;20030;-75
2022/11/25 02:23:25;;;;;;;19.30;4.22;;;9.10;99.90;;;;;;5032529;28;20025;-74
2022/11/25 02:25:52;;;;;;;17.30;3.63;;;9.20;99.90;;;;;;5039943;28;20059;-75
2022/11/25 02:28:23;;;;;;;17.60;4.63;;;9.10;99.90;;;;;;5042838;28;20032;-75
2022/11/25 02:30:50;;;;;;;17.48;4.03;;;9.10;99.90;;;;;;5044218;28;20025;-75
2022/11/25 02:33:16;;;;;;;19.23;4.57;;;9.10;99.90;;;;;;5042836;28;20489;-74
2022/11/25 02:35:47;;;;;;;21.75;4.45;;;9.10;99.90;;;;;;5019760;28;20030;-74
2022/11/25 02:38:17;;;;;;;12.15;3.47;;;9.10;99.90;;;;;;5018759;28;20405;-75
2022/11/25 02:40:49;;;;;;;20.25;4.25;;;9.10;99.90;;;;;;5032251;28;20139;-75
2022/11/25 02:43:15;;;;;;;14.05;3.53;;;9.00;99.90;;;;;;5032424;28;20377;-75
2022/11/25 02:45:51;;;;;;;15.18;4.47;;;9.00;99.90;;;;;;5032319;28;20036;-74
2022/11/25 02:48:17;;;;;;;12.95;3.70;;;9.00;99.90;;;;;;5031903;28;20100;-75
2022/11/25 02:50:43;;;;;;;14.65;3.70;;;9.00;99.90;;;;;;5032250;28;20425;-74
2022/11/25 02:53:08;;;;;;;16.15;3.40;;;9.00;99.90;;;;;;5031351;28;20030;-74
2022/11/25 02:55:34;;;;;;;20.83;3.40;;;9.00;99.90;;;;;;5032181;28;20026;-74
2022/11/25 02:57:59;;;;;;;11.63;3.08;;;9.50;99.90;;;;;;5031883;28;20033;-74
2022/11/25 03:00:25;;;;;;;9.32;2.75;;;8.90;99.90;;;;;;5031616;28;20029;-76
2022/11/25 03:02:53;;;;;;;9.70;3.05;;;8.90;99.90;;;;;;5032613;28;20120;-75
2022/11/25 03:05:19;;;;;;;8.75;2.45;;;8.90;99.90;;;;;;5032197;28;20026;-75
2022/11/25 03:07:45;;;;;;;12.93;2.80;;;8.90;99.90;;;;;;5032114;28;20104;-75
2022/11/25 03:10:11;;;;;;;16.10;3.03;;;8.90;99.90;;;;;;5031688;28;20513;-76
2022/11/25 03:12:36;;;;;;;11.32;2.80;;;8.90;99.90;;;;;;5032121;28;20025;-74
2022/11/25 03:15:02;;;;;;;9.90;2.50;;;9.00;99.90;;;;;;5030867;28;20104;-74
2022/11/25 03:17:28;;;;;;;17.98;2.58;;;8.90;99.90;;;;;;5031712;28;20038;-74
2022/11/25 03:19:53;;;;;;;8.25;2.28;;;8.90;99.90;;;;;;5032323;28;20465;-75
2022/11/25 03:22:19;;;;;;;7.47;1.92;;;8.90;99.90;;;;;;5032276;28;20025;-75
2022/11/25 03:24:44;;;;;;;14.57;3.13;;;8.80;99.90;;;;;;5032108;28;20068;-74
2022/11/25 03:27:10;;;;;;;9.98;2.50;;;8.80;99.90;;;;;;5031687;28;20056;-74
2022/11/25 03:29:35;;;;;;;8.88;2.30;;;8.80;99.90;;;;;;5031232;28;20079;-75
2022/11/25 03:32:01;;;;;;;8.55;2.30;;;8.80;99.90;;;;;;5031546;28;20123;-75
2022/11/25 03:34:27;;;;;;;9.25;2.15;;;8.80;99.90;;;;;;5032064;28;20127;-74
2022/11/25 03:36:52;;;;;;;6.22;1.95;;;8.90;99.90;;;;;;5031616;28;20032;-75
2022/11/25 03:39:18;;;;;;;7.60;1.77;;;8.90;99.90;;;;;;5033448;28;20099;-75
2022/11/25 03:41:43;;;;;;;5.13;1.67;;;8.90;99.90;;;;;;5041375;28;20456;-74
2022/11/25 03:44:09;;;;;;;4.93;1.67;;;8.90;99.90;;;;;;5055098;28;20136;-75
2022/11/25 03:46:34;;;;;;;4.43;1.52;;;9.00;99.90;;;;;;5056799;28;20067;-74
2022/11/25 03:49:00;;;;;;;3.20;1.50;;;9.10;99.90;;;;;;5056671;28;20052;-74
2022/11/25 03:51:25;;;;;;;8.75;2.00;;;9.00;99.90;;;;;;5055057;28;20025;-74
2022/11/25 03:53:53;;;;;;;8.60;1.67;;;9.00;99.90;;;;;;5056061;28;20029;-75
2022/11/25 03:56:19;;;;;;;7.63;1.67;;;9.00;99.90;;;;;;5056006;28;20192;-75
2022/11/25 03:58:45;;;;;;;4.40;1.48;;;9.10;99.90;;;;;;5056003;28;20064;-75
2022/11/25 04:01:10;;;;;;;8.18;2.03;;;9.00;99.90;;;;;;5055066;28;20100;-75
2022/11/25 04:03:36;;;;;;;8.10;1.83;;;9.50;99.90;;;;;;5055823;28;20092;-74
2022/11/25 04:06:01;;;;;;;5.75;1.98;;;9.00;99.90;;;;;;5055467;28;20041;-74
2022/11/25 04:08:27;;;;;;;8.13;1.75;;;8.80;99.90;;;;;;5055910;28;20330;-75
2022/11/25 04:10:52;;;;;;;5.63;1.85;;;8.80;99.90;;;;;;5057860;28;20058;-75
2022/11/25 04:13:21;;;;;;;6.30;2.08;;;8.80;99.90;;;;;;5057009;28;20342;-75
2022/11/25 04:15:48;;;;;;;9.00;2.55;;;8.80;99.90;;;;;;5055117;28;20473;-75
2022/11/25 04:18:15;;;;;;;7.50;2.20;;;8.70;99.90;;;;;;5054778;28;20070;-74
2022/11/25 04:20:40;;;;;;;9.00;2.05;;;9.20;99.90;;;;;;5046178;28;20022;-74
2022/11/25 04:23:07;;;;;;;10.90;2.78;;;8.60;99.90;;;;;;5052182;28;20028;-74
2022/11/25 04:25:33;;;;;;;5.80;2.22;;;8.50;99.90;;;;;;5055325;28;20041;-75
2022/11/25 04:27:59;;;;;;;5.07;2.42;;;8.40;99.90;;;;;;5056029;28;20029;-75
2022/11/25 04:30:25;;;;;;;6.07;1.77;;;8.30;99.90;;;;;;5055758;28;20075;-75
2022/11/25 04:32:50;;;;;;;5.45;2.00;;;8.30;99.90;;;;;;5054746;28;20029;-74
2022/11/25 04:35:16;;;;;;;4.40;1.58;;;8.20;99.90;;;;;;5056214;28;20017;-74
2022/11/25 04:37:41;;;;;;;6.38;2.22;;;8.20;99.90;;;;;;5045822;28;20064;-74
2022/11/25 04:40:08;;;;;;;4.10;1.70;;;8.10;99.90;;;;;;5051135;28;20031;-74
2022/11/25 04:42:35;;;;;;;8.23;1.50;;;8.10;99.90;;;;;;5053884;28;20052;-74
2022/11/25 04:45:04;;;;;;;5.25;1.77;;;8.10;99.90;;;;;;5053886;28;20028;-75
2022/11/25 04:47:30;;;;;;;2.15;1.23;;;8.10;99.90;;;;;;5053239;28;20033;-75
2022/11/25 04:49:56;;;;;;;6.72;1.83;;;8.20;99.90;;;;;;5054161;28;20021;-75
2022/11/25 04:52:22;;;;;;;2.25;1.40;;;8.20;99.90;;;;;;5053990;28;20111;-75
2022/11/25 04:54:47;;;;;;;6.43;1.80;;;8.20;99.90;;;;;;5053734;28;20033;-75
2022/11/25 04:57:14;;;;;;;4.22;1.60;;;8.20;99.90;;;;;;5054145;28;20084;-75
2022/11/25 04:59:41;;;;;;;6.05;1.35;;;8.20;99.90;;;;;;5054420;28;20036;-75
2022/11/25 05:02:20;;;;;;;7.15;1.60;;;8.20;99.90;;;;;;5054253;28;20108;-74
2022/11/25 05:04:48;;;;;;;8.68;1.75;;;8.20;99.90;;;;;;5046273;28;20072;-75
2022/11/25 05:07:15;;;;;;;7.10;1.80;;;8.90;99.90;;;;;;5047328;28;20516;-74
2022/11/25 05:09:41;;;;;;;3.50;1.60;;;8.20;99.90;;;;;;5054192;28;20491;-74
2022/11/25 05:12:10;;;;;;;5.32;1.33;;;8.20;99.90;;;;;;5054135;28;20060;-76
2022/11/25 05:14:36;;;;;;;2.50;1.60;;;8.20;99.90;;;;;;5052979;28;20504;-75
2022/11/25 05:17:02;;;;;;;4.00;2.05;;;8.20;99.90;;;;;;5053609;28;20071;-75
2022/11/25 05:19:28;;;;;;;5.72;1.95;;;8.20;99.90;;;;;;5054244;28;20100;-75
2022/11/25 05:21:53;;;;;;;4.25;1.77;;;8.70;99.90;;;;;;5053181;28;20053;-74
2022/11/25 05:24:19;;;;;;;8.30;1.80;;;8.20;99.90;;;;;;5053734;28;20037;-74
2022/11/25 05:26:46;;;;;;;7.97;2.20;;;8.20;99.90;;;;;;5053702;28;20033;-74
2022/11/25 05:29:11;;;;;;;4.35;2.25;;;8.20;99.90;;;;;;5053060;28;20029;-75
2022/11/25 05:31:37;;;;;;;4.90;2.22;;;8.20;99.90;;;;;;5054216;28;20481;-74
2022/11/25 05:34:03;;;;;;;3.95;1.92;;;8.30;99.90;;;;;;5053195;28;20482;-76
2022/11/25 05:36:28;;;;;;;3.83;2.65;;;8.20;99.90;;;;;;5052880;28;20031;-76
2022/11/25 05:38:58;;;;;;;7.00;2.13;;;8.20;99.90;;;;;;5053322;28;20097;-75
2022/11/25 05:41:24;;;;;;;8.98;3.10;;;8.20;99.90;;;;;;5053872;28;20029;-75
2022/11/25 05:43:50;;;;;;;7.25;2.45;;;8.20;99.90;;;;;;5053198;28;20059;-74
2022/11/25 05:46:15;;;;;;;7.82;2.47;;;8.20;99.90;;;;;;5053662;28;20440;-75
2022/11/25 05:48:41;;;;;;;7.25;2.33;;;8.20;99.90;;;;;;5054233;28;20028;-75
2022/11/25 05:51:08;;;;;;;8.13;2.80;;;8.20;99.90;;;;;;5052240;28;20048;-76
2022/11/25 05:53:34;;;;;;;6.28;2.83;;;8.10;99.90;;;;;;5054118;28;20370;-75
2022/11/25 05:56:03;;;;;;;5.68;3.08;;;8.00;99.90;;;;;;5052402;28;20020;-75
2022/11/25 05:58:31;;;;;;;5.75;2.22;;;8.00;99.90;;;;;;5053277;28;20086;-75
2022/11/25 06:00:57;;;;;;;5.20;2.65;;;8.00;99.90;;;;;;5053123;28;20080;-75
2022/11/25 06:03:27;;;;;;;9.55;2.95;;;7.90;99.90;;;;;;5051678;28;20479;-75
2022/11/25 06:05:55;;;;;;;9.65;3.63;;;7.90;99.90;;;;;;5052480;28;20021;-76
2022/11/25 06:08:21;;;;;;;5.53;2.78;;;8.00;99.90;;;;;;5052986;28;20059;-74
2022/11/25 06:10:48;;;;;;;9.52;3.00;;;7.90;99.90;;;;;;5052184;28;20457;-75
2022/11/25 06:13:14;;;;;;;4.30;2.75;;;7.90;99.90;;;;;;5053749;28;20040;-75
2022/11/25 06:15:41;;;;;;;6.93;2.90;;;7.90;99.90;;;;;;5052656;28;20021;-75
2022/11/25 06:18:08;;;;;;;8.90;3.30;;;7.80;99.90;;;;;;5052389;28;20033;-75
2022/11/25 06:20:33;;;;;;;7.72;3.28;;;7.80;99.90;;;;;;5053030;28;20104;-75
2022/11/25 06:22:59;;;;;;;10.23;3.00;;;7.70;99.90;;;;;;5048223;28;20041;-74
2022/11/25 06:25:25;;;;;;;10.40;3.97;;;7.70;99.90;;;;;;5042852;28;20055;-74
2022/11/25 06:27:51;;;;;;;13.30;3.58;;;7.70;99.90;;;;;;5052350;28;20033;-76
2022/11/25 06:30:18;;;;;;;9.43;3.25;;;7.60;99.90;;;;;;5053469;28;20370;-76
2022/11/25 06:32:43;;;;;;;11.30;3.17;;;7.60;99.90;;;;;;5052697;28;20036;-76
2022/11/25 06:35:09;;;;;;;6.88;3.53;;;7.60;99.90;;;;;;5053963;28;20029;-74
2022/11/25 06:37:35;;;;;;;7.00;3.45;;;7.60;99.90;;;;;;5041443;28;20061;-76
2022/11/25 06:40:01;;;;;;;6.32;3.30;;;7.50;99.90;;;;;;5050952;28;20029;-76
2022/11/25 06:42:27;;;;;;;9.52;3.45;;;7.50;99.90;;;;;;5053225;28;20021;-75
2022/11/25 06:44:53;;;;;;;10.52;3.30;;;7.40;99.90;;;;;;5048899;28;20028;-77
2022/11/25 06:47:18;;;;;;;14.77;3.88;;;7.40;99.90;;;;;;5020457;28;20128;-76
2022/11/25 06:49:44;;;;;;;6.82;3.80;;;7.50;99.90;;;;;;5034708;28;20116;-76
2022/11/25 06:52:09;;;;;;;12.05;4.43;;;7.40;99.90;;;;;;5030158;28;20488;-76
2022/11/25 06:54:39;;;;;;;10.55;3.85;;;7.40;99.90;;;;;;5031525;28;20022;-76
2022/11/25 06:57:09;;;;;;;7.95;4.13;;;7.40;99.90;;;;;;5031150;28;20068;-76
2022/11/25 06:59:34;;;;;;;8.52;3.70;;;7.40;99.90;;;;;;5028542;28;20021;-75
2022/11/25 07:02:00;;;;;;;12.93;4.35;;;7.40;99.90;;;;;;5029113;28;20041;-75
2022/11/25 07:04:25;;;;;;;5.90;4.45;;;7.30;99.90;;;;;;5022871;28;20147;-77
2022/11/25 07:06:51;;;;;;;11.82;4.78;;;7.30;99.90;;;;;;5016346;28;20037;-76
2022/11/25 07:09:18;;;;;;;11.07;4.45;;;7.30;99.90;;;;;;5015908;28;20056;-75
2022/11/25 07:11:44;;;;;;;8.05;4.10;;;7.30;99.90;;;;;;5015728;28;20030;-76
2022/11/25 07:14:15;;;;;;;15.93;5.75;;;7.30;99.90;;;;;;5013676;28;20033;-76
2022/11/25 07:16:43;;;;;;;10.77;4.80;;;7.30;99.90;;;;;;5015809;28;20029;-76
2022/11/25 07:19:10;;;;;;;14.35;5.10;;;7.30;99.90;;;;;;5018077;28;20018;-75
2022/11/25 07:21:36;;;;;;;12.15;4.97;;;7.30;99.90;;;;;;5019288;28;20030;-74
2022/11/25 07:24:04;;;;;;;10.35;4.55;;;7.40;99.90;;;;;;5017799;28;20370;-75
2022/11/25 07:26:32;;;;;;;11.30;4.75;;;7.40;99.90;;;;;;5019363;28;20057;-75
2022/11/25 07:29:01;;;;;;;11.52;4.93;;;7.30;99.90;;;;;;5016227;28;20604;-75
2022/11/25 07:31:35;;;;;;;6.60;4.25;;;7.40;99.90;;;;;;5018281;28;20030;-75
2022/11/25 07:34:14;;;;;;;11.75;4.90;;;7.40;99.90;;;;;;5020118;28;20025;-76
2022/11/25 07:36:40;;;;;;;13.02;5.05;;;7.40;99.90;;;;;;5018776;28;20616;-75
2022/11/25 07:39:11;;;;;;;11.80;5.45;;;7.40;99.90;;;;;;5016736;28;20061;-75
2022/11/25 07:41:36;;;;;;;;;;;7.40;99.90;;;;;;5020291;28;20128;-76
2022/11/25 07:44:07;;;;;;;11.63;4.32;;;7.30;99.90;;;;;;5024795;28;20395;-76
2022/11/25 07:46:38;;;;;;;10.45;5.43;;;7.30;99.90;;;;;;5035353;28;20236;-75
2022/11/25 07:49:07;;;;;;;13.98;4.65;;;7.30;99.90;;;;;;5035000;28;20040;-75
2022/11/25 07:51:37;;;;;;;11.45;4.78;;;7.40;99.90;;;;;;5032879;28;20033;-75
2022/11/25 07:54:06;;;;;;;9.27;4.53;;;7.30;99.90;;;;;;5035443;28;20022;-75
2022/11/25 07:56:34;;;;;;;11.93;4.65;;;7.30;99.90;;;;;;5034694;28;20057;-75
2022/11/25 07:59:00;;;;;;;8.45;4.35;;;7.30;99.90;;;;;;5035154;28;20028;-75
2022/11/25 08:01:25;;;;;;;11.55;3.95;;;7.30;99.90;;;;;;5035702;28;20358;-75
2022/11/25 08:03:52;;;;;;;12.88;4.85;;;7.40;99.90;;;;;;5034224;28;20035;-77
2022/11/25 08:06:28;;;;;;;8.73;4.72;;;7.40;99.90;;;;;;5032973;28;20366;-76
2022/11/25 08:08:56;;;;;;;7.80;4.38;;;7.50;99.90;;;;;;5033627;28;20025;-76
2022/11/25 08:11:24;;;;;;;16.85;4.95;;;7.50;99.90;;;;;;5030066;28;20091;-75
2022/11/25 08:13:50;;;;;;;11.55;4.30;;;7.60;99.90;;;;;;5034417;28;20014;-75
2022/11/25 08:16:17;;;;;;;11.68;4.00;;;7.70;99.90;;;;;;5032298;28;20559;-76
2022/11/25 08:18:43;;;;;;;10.23;4.20;;;7.80;99.90;;;;;;5031875;28;20049;-77
2022/11/25 08:21:11;;;;;;;7.80;4.03;;;7.80;99.90;;;;;;5031428;28;20248;-76
2022/11/25 08:23:39;;;;;;;8.25;3.30;;;7.90;99.90;;;;;;5033611;28;20553;-75
2022/11/25 08:26:10;;;;;;;6.75;3.40;;;8.00;99.90;;;;;;5029907;28;20045;-75
2022/11/25 08:28:37;;;;;;;10.38;3.30;;;8.10;99.90;;;;;;5032670;28;20021;-76
2022/11/25 08:31:12;;;;;;;10.95;4.50;;;8.20;99.90;;;;;;5034915;28;20104;-76
2022/11/25 08:33:38;;;;;;;13.00;3.88;;;8.20;99.90;;;;;;5035118;28;20029;-77
2022/11/25 08:36:05;;;;;;;8.48;3.50;;;8.20;99.90;;;;;;5034794;28;20386;-75
2022/11/25 08:38:31;;;;;;;13.98;4.07;;;8.30;99.90;;;;;;5033609;28;20033;-76
2022/11/25 08:40:57;;;;;;;7.70;3.42;;;8.40;99.90;;;;;;5017640;28;20022;-76
2022/11/25 08:43:23;;;;;;;10.02;2.90;;;8.50;99.90;;;;;;5033395;28;20109;-76
2022/11/25 08:45:49;;;;;;;9.35;3.50;;;8.50;99.90;;;;;;5034801;28;20040;-77
2022/11/25 08:48:17;;;;;;;4.95;2.60;;;8.60;99.90;;;;;;5035575;28;20026;-76
2022/11/25 08:50:49;;;;;;;8.70;2.97;;;8.60;99.90;;;;;;5054035;28;20043;-76
2022/11/25 08:53:15;;;;;;;9.18;3.25;;;8.70;99.90;;;;;;5054332;28;20064;-76
2022/11/25 08:55:41;;;;;;;12.60;3.40;;;8.60;99.90;;;;;;5040735;28;20048;-74
2022/11/25 08:58:09;;;;;;;10.52;3.03;;;8.70;99.90;;;;;;5054935;28;20033;-76
2022/11/25 09:00:36;;;;;;;9.55;3.30;;;8.70;99.90;;;;;;5054920;28;20035;-75
2022/11/25 09:03:02;;;;;;;8.35;3.50;;;8.70;99.90;;;;;;5045840;28;20030;-76
2022/11/25 09:05:34;;;;;;;5.50;2.78;;;8.70;99.90;;;;;;5040144;28;20462;-76
2022/11/25 09:08:01;;;;;;;8.07;3.20;;;8.80;99.90;;;;;;5030818;28;20046;-76
2022/11/25 09:10:26;;;;;;;11.20;3.80;;;8.80;99.90;;;;;;5033742;28;20024;-76
2022/11/25 09:12:52;;;;;;;9.20;3.55;;;8.80;99.90;;;;;;5032214;28;20025;-80
2022/11/25 09:15:17;;;;;;;9.13;3.20;;;8.80;99.90;;;;;;5034417;28;20021;-77
2022/11/25 09:17:43;;;;;;;13.07;3.58;;;8.90;99.90;;;;;;5034225;28;20083;-76
2022/11/25 09:20:09;;;;;;;10.80;3.40;;;8.90;99.90;;;;;;5034242;28;20040;-75
2022/11/25 09:22:35;;;;;;;7.88;3.30;;;8.80;99.90;;;;;;5034539;28;20032;-77
2022/11/25 09:25:01;;;;;;;8.65;3.60;;;8.90;99.90;;;;;;5033952;28;20132;-76
2022/11/25 09:27:26;;;;;;;10.13;3.75;;;9.00;99.90;;;;;;5033325;28;20124;-76
2022/11/25 09:29:52;;;;;;;8.85;3.53;;;9.00;99.90;;;;;;5041138;28;20066;-77
2022/11/25 09:32:17;;;;;;;11.32;3.88;;;9.10;99.90;;;;;;5034698;28;20107;-77
2022/11/25 09:34:43;;;;;;;15.02;4.15;;;9.10;99.90;;;;;;5034468;28;21487;-79
2022/11/25 09:37:10;;;;;;;8.80;3.83;;;9.10;99.90;;;;;;5026389;28;20088;-76
2022/11/25 09:39:36;;;;;;;8.82;4.13;;;9.10;99.90;;;;;;5029104;28;20029;-78
2022/11/25 09:48:48;;;;;;;10.75;4.18;;;9.30;99.90;;;;;;5032725;28;20533;-76
2022/11/25 09:51:48;;;;;;;15.50;5.90;;;9.40;99.90;;;;;;5030344;28;20025;-78
2022/11/25 09:54:25;;;;;;;13.57;4.85;;;9.40;99.90;;;;;;5034996;28;20014;-75
2022/11/25 09:56:59;;;;;;;13.95;6.07;;;9.50;99.90;;;;;;5032436;28;20485;-76
2022/11/25 09:59:35;;;;;;;10.80;5.32;;;9.50;99.90;;;;;;5029957;28;20492;-75
2022/11/25 10:02:05;;;;;;;19.20;5.97;;;9.50;99.90;;;;;;5023219;28;20335;-77
2022/11/25 10:04:43;;;;;;;16.48;6.50;;;9.60;99.90;;;;;;5032043;28;20025;-77
2022/11/25 10:07:20;;;;;;;15.25;6.45;;;9.70;99.90;;;;;;5028823;28;20037;-76
2022/11/25 10:09:48;;;;;;;11.93;5.22;;;9.70;99.90;;;;;;5030421;28;20020;-76
2022/11/25 10:12:27;;;;;;;9.57;4.85;;;9.80;99.90;;;;;;5022050;28;20022;-76
2022/11/25 10:15:09;;;;;;;10.32;5.07;;;9.90;99.90;;;;;;5024339;28;20029;-77
2022/11/25 10:17:50;;;;;;;13.55;5.63;;;9.90;99.90;;;;;;5021019;28;20042;-76
2022/11/25 10:20:21;;;;;;;;;;;10.00;99.90;;;;;;5031654;28;20048;-76
2022/11/25 10:22:50;;;;;;;12.85;5.80;;;10.00;99.90;;;;;;5033188;28;20327;-76
2022/11/25 10:25:19;;;;;;;11.88;5.38;;;10.10;99.90;;;;;;5031234;28;20129;-77
2022/11/25 10:27:59;;;;;;;9.90;3.80;;;10.10;99.90;;;;;;5028884;28;20029;-76
2022/11/25 10:30:26;;;;;;;14.45;5.03;;;10.10;99.90;;;;;;5030883;28;20685;-77
2022/11/25 10:33:02;;;;;;;13.13;4.57;;;10.10;99.90;;;;;;5029136;28;20436;-77
2022/11/25 10:35:41;;;;;;;14.48;4.13;;;10.20;99.90;;;;;;5023237;28;20148;-76
2022/11/25 10:38:16;;;;;;;9.60;4.50;;;10.20;99.90;;;;;;5027855;28;20519;-78
2022/11/25 10:40:45;;;;;;;11.93;5.15;;;10.30;99.90;;;;;;5028969;28;20112;-78
2022/11/25 10:43:15;;;;;;;12.98;4.25;;;10.30;99.90;;;;;;5028596;28;20104;-77
2022/11/25 10:45:50;;;;;;;7.82;3.28;;;10.30;99.90;;;;;;5026685;28;20393;-75
2022/11/25 10:48:24;;;;;;;13.82;4.35;;;10.30;99.90;;;;;;5033279;28;20477;-77
2022/11/25 10:51:11;;;;;;;11.73;4.40;;;10.40;99.90;;;;;;5046548;28;20022;-76
2022/11/25 10:53:37;;;;;;;12.65;2.97;;;10.40;99.90;;;;;;5048197;28;20116;-76
2022/11/25 10:56:09;;;;;;;10.68;3.25;;;10.50;99.90;;;;;;5053349;28;20064;-78
2022/11/25 10:58:37;;;;;;;11.63;2.97;;;10.50;99.90;;;;;;5040639;28;20061;-76
2022/11/25 11:01:24;;;;;;;12.57;2.70;;;10.60;99.90;;;;;;5046294;28;20045;-77
2022/11/25 11:04:10;;;;;;;9.70;2.38;;;10.60;99.90;;;;;;5033561;28;20389;-78
2022/11/25 11:06:41;;;;;;;11.60;2.75;;;10.70;99.90;;;;;;5036039;28;20034;-77
2022/11/25 11:09:30;;;;;;;7.00;2.53;;;10.70;99.90;;;;;;5017306;28;20557;-75
2022/11/25 11:11:56;;;;;;;9.48;2.55;;;10.80;99.90;;;;;;5024989;28;20026;-77
2022/11/25 11:14:21;;;;;;;8.35;2.00;;;10.80;99.90;;;;;;5030056;28;20087;-76
2022/11/25 11:16:53;;;;;;;5.43;2.15;;;10.80;99.90;;;;;;5033408;28;20080;-74
2022/11/25 11:19:25;;;;;;;12.45;2.53;;;10.80;99.90;;;;;;5032740;28;20025;-79
2022/11/25 11:21:51;;;;;;;8.98;2.65;;;10.90;99.90;;;;;;5032969;28;20426;-78
2022/11/25 11:24:31;;;;;;;5.63;2.13;;;11.00;99.90;;;;;;5032786;28;20061;-76
2022/11/25 11:27:02;;;;;;;11.07;2.65;;;11.00;99.90;;;;;;5032553;28;20120;-76
2022/11/25 11:29:27;;;;;;;13.63;2.35;;;11.10;99.90;;;;;;5031509;28;20092;-76
2022/11/25 11:31:59;;;;;;;11.43;1.80;;;11.20;99.90;;;;;;5031578;28;20470;-76
2022/11/25 11:34:44;;;;;;;8.10;1.95;;;11.20;99.90;;;;;;5030566;28;20088;-76
2022/11/25 11:37:16;;;;;;;7.43;2.28;;;11.30;99.90;;;;;;5033313;28;20029;-77
2022/11/25 11:40:02;;;;;;;13.05;2.10;;;11.30;99.90;;;;;;5033638;28;20028;-77
2022/11/25 11:42:50;;;;;;;12.88;1.75;;;11.40;99.90;;;;;;5021326;28;20060;-77
2022/11/25 11:45:36;;;;;;;7.80;1.90;;;11.40;99.90;;;;;;5031905;28;20048;-78
2022/11/25 11:48:25;;;;;;;14.27;2.20;;;11.50;99.90;;;;;;5032320;28;20048;-77
2022/11/25 11:51:06;;;;;;;7.88;1.70;;;11.60;99.90;;;;;;5053224;28;20473;-78
2022/11/25 11:53:37;;;;;;;10.60;2.25;;;11.70;99.90;;;;;;5053861;28;20029;-78
2022/11/25 11:56:27;;;;;;;15.38;3.20;;;11.80;99.90;;;;;;5052508;28;20021;-77
2022/11/25 11:59:11;;;;;;;10.77;1.98;;;11.70;99.90;;;;;;5052669;28;20050;-78
2022/11/25 12:02:10;;;;;;;7.75;2.22;;;11.70;99.90;;;;;;5053791;28;20029;-78
2022/11/25 12:04:42;;;;;;;8.50;1.65;;;11.60;99.90;;;;;;5056494;28;20053;-78
2022/11/25 12:07:30;;;;;;;10.85;1.90;;;11.60;99.90;;;;;;5055713;28;20065;-78
2022/11/25 12:10:19;;;;;;;11.25;2.45;;;11.60;99.90;;;;;;5056189;28;20123;-78
2022/11/25 12:12:51;;;;;;;12.43;2.42;;;11.50;99.90;;;;;;5052216;28;20052;-78
2022/11/25 12:15:35;;;;;;;12.85;1.80;;;11.50;99.90;;;;;;5055422;28;20021;-78
2022/11/25 12:18:18;;;;;;;14.73;2.30;;;11.40;99.90;;;;;;5042399;28;20036;-76
2022/11/25 12:20:51;;;;;;;14.52;2.53;;;11.40;99.90;;;;;;5056876;28;20060;-76
2022/11/25 12:23:30;;;;;;;11.57;2.67;;;11.40;99.90;;;;;;5056701;28;20069;-77
2022/11/25 12:26:04;;;;;;;10.57;2.45;;;11.50;99.90;;;;;;5056035;28;20049;-77
2022/11/25 12:29:03;;;;;;;16.52;2.05;;;12.10;99.90;;;;;;5056983;28;20029;-77
2022/11/25 12:31:40;;;;;;;13.63;2.28;;;11.70;99.90;;;;;;5054050;28;20484;-78
2022/11/25 12:34:29;;;;;;;12.25;3.17;;;11.80;99.90;;;;;;5057081;28;20112;-76
2022/11/25 12:37:16;;;;;;;14.18;2.67;;;11.80;99.90;;;;;;5025824;28;20496;-77
2022/11/25 12:39:57;;;;;;;11.15;2.50;;;11.80;99.90;;;;;;5057294;28;20025;-78
2022/11/25 12:42:24;;;;;;;;;;;11.80;99.90;;;;;;5056046;28;20028;-77
2022/11/25 12:45:02;;;;;;;15.35;2.38;;;11.80;99.90;;;;;;5054961;28;20327;-78
2022/11/25 12:47:28;;;;;;;14.55;3.65;;;11.80;99.90;;;;;;5055678;28;20045;-77
2022/11/25 12:49:55;;;;;;;10.90;2.55;;;11.80;99.90;;;;;;5055732;28;20354;-79
2022/11/25 12:52:41;;;;;;;20.73;3.58;;;11.80;99.90;;;;;;5040932;28;20128;-77
2022/11/25 12:55:24;;;;;;;12.60;3.17;;;11.70;99.90;;;;;;5055138;28;20492;-78
2022/11/25 12:58:27;;;;;;;7.55;2.60;;;11.70;99.90;;;;;;5030055;28;20025;-77
2022/11/25 13:01:05;;;;;;;13.85;2.65;;;11.80;99.90;;;;;;5042627;28;20021;-77
2022/11/25 13:03:56;;;;;;;15.15;3.22;;;11.80;99.90;;;;;;5057388;28;20055;-79
2022/11/25 13:06:39;;;;;;;10.88;2.83;;;11.80;99.90;;;;;;5055784;28;20048;-77
2022/11/25 13:09:36;;;;;;;17.63;2.80;;;11.90;99.90;;;;;;5056630;28;20022;-77
2022/11/25 13:12:28;;;;;;;12.95;2.95;;;11.90;99.90;;;;;;5056333;28;20052;-78
2022/11/25 13:15:19;;;;;;;19.48;2.95;;;11.90;99.90;;;;;;5055420;28;20028;-77
2022/11/25 13:17:48;;;;;;;11.63;3.08;;;12.00;99.90;;;;;;5054365;28;20021;-78